createdAt,value
2022-10-02T00:01:34.653Z,98951.72
2022-10-02T00:04:03.891Z,98953.09
2022-10-02T00:06:42.483Z,98945.16
2022-10-02T00:09:20.582Z,98942.94
2022-10-02T00:11:55.345Z,98961.03
2022-10-02T00:14:27.616Z,98967.59
2022-10-02T00:16:57.711Z,98969.22
2022-10-02T00:19:25.641Z,98966.41
2022-10-02T00:22:11.123Z,98957.88
2022-10-02T00:24:44.269Z,98960.22
2022-10-02T00:27:34.574Z,98974.78
2022-10-02T00:30:05.293Z,98962.28
2022-10-02T00:32:38.673Z,98960.50
2022-10-02T00:35:32.179Z,98964.41
2022-10-02T00:38:09.217Z,98968.34
2022-10-02T00:40:50.261Z,98959.28
2022-10-02T00:43:27.853Z,98959.97
2022-10-02T00:46:23.587Z,98957.47
2022-10-02T00:49:08.910Z,98956.78
2022-10-02T00:51:48.414Z,98962.63
2022-10-02T00:54:31.353Z,98966.06
2022-10-02T00:57:10.051Z,98970.34
2022-10-02T00:59:50.211Z,98966.56
2022-10-02T01:02:53.394Z,98973.34
2022-10-02T01:05:22.632Z,98974.03
2022-10-02T01:07:53.969Z,98981.88
2022-10-02T01:10:22.889Z,98987.78
2022-10-02T01:12:51.346Z,98989.06
2022-10-02T01:15:21.462Z,98986.72
2022-10-02T01:17:51.950Z,98983.84
2022-10-02T01:20:24.403Z,98988.50
2022-10-02T01:22:58.736Z,98967.72
2022-10-02T01:25:27.832Z,98971.41
2022-10-02T01:27:55.892Z,98973.09
2022-10-02T01:30:23.751Z,98962.19
2022-10-02T01:32:54.841Z,98959.94
2022-10-02T01:35:27.075Z,98971.31
2022-10-02T01:37:56.307Z,98983.63
2022-10-02T01:40:28.164Z,98981.50
2022-10-02T01:42:58.829Z,98966.66
2022-10-02T01:45:50.253Z,98977.72
2022-10-02T01:48:29.074Z,98971.69
2022-10-02T01:51:07.288Z,98977.19
2022-10-02T01:53:45.287Z,98981.78
2022-10-02T01:56:24.138Z,98990.63
2022-10-02T01:59:02.602Z,98994.38
2022-10-02T02:01:45.058Z,98998.41
2022-10-02T02:04:23.081Z,98987.06
2022-10-02T02:06:58.657Z,98988.34
2022-10-02T02:09:34.345Z,98983.13
2022-10-02T02:12:15.172Z,98990.44
2022-10-02T02:14:48.112Z,98987.56
2022-10-02T02:17:21.894Z,98990.69
2022-10-02T02:19:55.203Z,98995.31
2022-10-02T02:22:27.075Z,98991.78
2022-10-02T02:24:59.156Z,98991.28
2022-10-02T02:27:33.400Z,98992.38
2022-10-02T02:30:05.660Z,98998.75
2022-10-02T02:32:37.039Z,99002.69
2022-10-02T02:35:11.475Z,99001.59
2022-10-02T02:37:43.315Z,98999.78
2022-10-02T02:40:14.950Z,98998.47
2022-10-02T02:42:50.613Z,98985.38
2022-10-02T02:45:22.437Z,98990.19
2022-10-02T02:47:53.779Z,98989.38
2022-10-02T02:50:27.710Z,98986.22
2022-10-02T02:53:00.111Z,98985.25
2022-10-02T02:55:33.091Z,98981.06
2022-10-02T02:58:08.396Z,98994.47
2022-10-02T03:00:36.541Z,98996.25
2022-10-02T03:03:04.661Z,98997.41
2022-10-02T03:05:35.195Z,99001.50
2022-10-02T03:08:05.932Z,98997.03
2022-10-02T03:10:46.069Z,99006.69
2022-10-02T03:13:30.326Z,98998.84
2022-10-02T03:16:11.944Z,99007.53
2022-10-02T03:18:51.935Z,98998.00
2022-10-02T03:21:27.383Z,99007.81
2022-10-02T03:24:04.526Z,99004.00
2022-10-02T03:26:40.036Z,98997.16
2022-10-02T03:29:14.392Z,98997.41
2022-10-02T03:31:42.831Z,98995.47
2022-10-02T03:34:10.609Z,98991.28
2022-10-02T03:36:38.842Z,98985.97
2022-10-02T03:41:56.032Z,98983.19
2022-10-02T03:44:25.408Z,98998.47
2022-10-02T03:46:53.266Z,98990.34
2022-10-02T03:49:21.014Z,98988.44
2022-10-02T03:51:50.868Z,98985.25
2022-10-02T03:54:21.402Z,98984.63
2022-10-02T03:56:55.814Z,98997.03
2022-10-02T03:59:35.997Z,98992.25
2022-10-02T04:02:09.171Z,98994.53
2022-10-02T04:04:46.294Z,98988.88
2022-10-02T04:07:18.922Z,99000.38
2022-10-02T04:09:52.959Z,99002.38
2022-10-02T04:12:29.221Z,99001.19
2022-10-02T04:15:02.301Z,99000.66
2022-10-02T04:17:43.887Z,98996.34
2022-10-02T04:20:19.422Z,98997.47
2022-10-02T04:22:54.021Z,99008.06
2022-10-02T04:25:23.924Z,99013.28
2022-10-02T04:27:56.074Z,99011.53
2022-10-02T04:30:25.693Z,99008.53
2022-10-02T04:32:54.609Z,99004.44
2022-10-02T04:35:30.375Z,99011.22
2022-10-02T04:38:29.857Z,99011.28
2022-10-02T04:41:16.663Z,99014.44
2022-10-02T04:44:01.895Z,99017.69
2022-10-02T04:46:50.655Z,99016.28
2022-10-02T04:49:34.637Z,99013.78
2022-10-02T04:52:15.981Z,99006.66
2022-10-02T04:54:58.758Z,99013.25
2022-10-02T04:57:45.893Z,99018.25
2022-10-02T05:00:16.433Z,99006.06
2022-10-02T05:03:04.767Z,99019.78
2022-10-02T05:05:45.920Z,99009.81
2022-10-02T05:08:46.444Z,99007.44
2022-10-02T05:11:27.706Z,99006.31
2022-10-02T05:14:10.683Z,99000.50
2022-10-02T05:16:56.947Z,99002.75
2022-10-02T05:19:52.720Z,99002.19
2022-10-02T05:22:39.625Z,99002.09
2022-10-02T05:25:21.122Z,98997.47
2022-10-02T05:28:04.518Z,99006.97
2022-10-02T05:30:39.193Z,99004.22
2022-10-02T05:33:33.129Z,99007.66
2022-10-02T05:36:51.367Z,99007.38
2022-10-02T05:39:26.921Z,99007.59
2022-10-02T05:42:05.668Z,99011.63
2022-10-02T05:44:37.624Z,99005.66
2022-10-02T05:47:12.702Z,99010.88
2022-10-02T05:49:42.842Z,99016.38
2022-10-02T05:52:17.730Z,99009.56
2022-10-02T05:54:52.442Z,98998.53
2022-10-02T05:57:26.335Z,99009.47
2022-10-02T06:00:10.530Z,99020.66
2022-10-02T06:02:48.780Z,99027.03
2022-10-02T06:05:20.069Z,99030.44
2022-10-02T06:07:55.555Z,99028.88
2022-10-02T06:10:29.036Z,99030.47
2022-10-02T06:13:08.484Z,99031.34
2022-10-02T06:15:44.155Z,99038.94
2022-10-02T06:18:19.232Z,99041.00
2022-10-02T06:20:52.815Z,99030.53
2022-10-02T06:23:26.467Z,99025.47
2022-10-02T06:25:57.534Z,99028.84
2022-10-02T06:28:30.324Z,99020.75
2022-10-02T06:31:02.873Z,99013.03
2022-10-02T06:33:33.222Z,99008.44
2022-10-02T06:36:27.558Z,99008.44
2022-10-02T06:39:20.337Z,99001.66
2022-10-02T06:41:59.334Z,98995.81
2022-10-02T06:44:33.669Z,98993.31
2022-10-02T06:47:11.989Z,98985.25
2022-10-02T06:49:56.600Z,99000.28
2022-10-02T06:52:38.009Z,99001.56
2022-10-02T06:55:27.338Z,99001.66
2022-10-02T06:58:11.358Z,98998.03
2022-10-02T07:00:50.915Z,98992.75
2022-10-02T07:03:34.936Z,98988.31
2022-10-02T07:06:24.694Z,98980.09
2022-10-02T07:09:12.443Z,98984.94
2022-10-02T07:11:53.887Z,98986.56
2022-10-02T07:14:32.649Z,98981.19
2022-10-02T07:17:22.306Z,98973.28
2022-10-02T07:20:29.491Z,98963.88
2022-10-02T07:23:16.255Z,98963.50
2022-10-02T07:25:59.366Z,98959.34
2022-10-02T07:28:39.471Z,98963.28
2022-10-02T07:31:15.429Z,98963.31
2022-10-02T07:33:59.918Z,98959.69
2022-10-02T07:36:42.901Z,98971.31
2022-10-02T07:39:19.979Z,98960.06
2022-10-02T07:42:06.561Z,98958.81
2022-10-02T07:44:59.079Z,98954.72
2022-10-02T07:47:51.613Z,98961.34
2022-10-02T07:50:28.051Z,98962.16
2022-10-02T07:53:06.502Z,98960.75
2022-10-02T07:55:36.537Z,98963.81
2022-10-02T07:58:09.547Z,98967.41
2022-10-02T08:00:45.301Z,98960.66
2022-10-02T08:03:17.673Z,98968.81
2022-10-02T08:05:49.001Z,98952.19
2022-10-02T08:08:23.039Z,98944.53
2022-10-02T08:10:56.974Z,98969.34
2022-10-02T08:13:29.321Z,98954.38
2022-10-02T08:15:59.051Z,98932.06
2022-10-02T08:18:35.897Z,98943.25
2022-10-02T08:21:13.111Z,98959.19
2022-10-02T08:23:44.524Z,98931.31
2022-10-02T08:26:20.338Z,98933.66
2022-10-02T08:28:54.072Z,98924.06
2022-10-02T08:31:26.342Z,98906.22
2022-10-02T08:33:54.096Z,98959.31
2022-10-02T08:37:00.158Z,98930.22
2022-10-02T08:39:45.227Z,98922.41
2022-10-02T08:42:41.414Z,98916.94
2022-10-02T08:46:02.386Z,98928.97
2022-10-02T08:49:11.290Z,98918.47
2022-10-02T08:51:56.073Z,98923.50
2022-10-02T08:55:11.437Z,98922.94
2022-10-02T08:58:00.378Z,98910.47
2022-10-02T09:00:37.179Z,98908.31
2022-10-02T09:04:02.699Z,98911.38
2022-10-02T09:07:28.223Z,98904.03
2022-10-02T09:10:29.636Z,98899.84
2022-10-02T09:13:22.724Z,98891.47
2022-10-02T09:16:05.524Z,98889.59
2022-10-02T09:18:50.335Z,98894.59
2022-10-02T09:21:23.230Z,98893.47
2022-10-02T09:24:46.568Z,98902.16
2022-10-02T09:27:49.338Z,98917.97
2022-10-02T09:30:22.043Z,98924.69
2022-10-02T09:33:23.771Z,98912.50
2022-10-02T09:36:33.833Z,98905.72
2022-10-02T09:39:37.312Z,98906.41
2022-10-02T09:42:43.236Z,98886.06
2022-10-02T09:45:39.485Z,98891.09
2022-10-02T09:48:52.113Z,98898.69
2022-10-02T09:51:55.740Z,98896.97
2022-10-02T09:55:01.153Z,98906.34
2022-10-02T09:58:06.208Z,98914.22
2022-10-02T10:00:59.598Z,98908.44
2022-10-02T10:03:57.528Z,98910.19
2022-10-02T10:07:07.136Z,98925.38
2022-10-02T10:10:05.258Z,98919.41
2022-10-02T10:12:55.846Z,98926.84
2022-10-02T10:15:56.497Z,98921.81
2022-10-02T10:18:55.053Z,98931.88
2022-10-02T10:22:05.513Z,98930.66
2022-10-02T10:25:27.922Z,98919.03
2022-10-02T10:28:27.166Z,98902.41
2022-10-02T10:31:28.359Z,98910.03
2022-10-02T10:34:24.009Z,98902.47
2022-10-02T10:37:16.960Z,98907.50
2022-10-02T10:40:11.937Z,98910.19
2022-10-02T10:43:16.892Z,98923.09
2022-10-02T10:46:11.426Z,98949.75
2022-10-02T10:49:11.543Z,98938.47
2022-10-02T10:51:48.430Z,98928.81
2022-10-02T10:55:02.570Z,98935.22
2022-10-02T10:57:45.869Z,98925.41
2022-10-02T11:00:21.747Z,98917.31
2022-10-02T11:03:27.697Z,98929.56
2022-10-02T11:06:29.991Z,98937.78
2022-10-02T11:09:41.892Z,98943.13
2022-10-02T11:12:28.120Z,98937.25
2022-10-02T11:15:17.483Z,98949.34
2022-10-02T11:18:01.728Z,98959.69
2022-10-02T11:20:46.635Z,98953.53
2022-10-02T11:23:45.438Z,98969.47
2022-10-02T11:26:30.948Z,98962.94
2022-10-02T11:29:34.189Z,98944.59
2022-10-02T11:32:19.278Z,98947.53
2022-10-02T11:35:14.879Z,98941.56
2022-10-02T11:38:04.365Z,98941.16
2022-10-02T11:40:41.947Z,98926.03
2022-10-02T11:43:28.250Z,98938.22
2022-10-02T11:46:14.547Z,98948.75
2022-10-02T11:49:07.587Z,98938.38
2022-10-02T11:52:13.831Z,98941.75
2022-10-02T11:54:59.533Z,98935.00
2022-10-02T11:57:41.251Z,98927.56
2022-10-02T12:00:41.317Z,98949.03
2022-10-02T12:03:18.035Z,98936.63
2022-10-02T12:05:55.755Z,98936.13
2022-10-02T12:08:34.385Z,98928.94
2022-10-02T12:11:12.215Z,98937.09
2022-10-02T12:14:01.219Z,98928.28
2022-10-02T12:16:40.709Z,98913.38
2022-10-02T12:19:27.331Z,98916.06
2022-10-02T12:22:21.934Z,98923.78
2022-10-02T12:25:16.460Z,98925.59
2022-10-02T12:27:55.661Z,98934.47
2022-10-02T12:30:28.746Z,98929.38
2022-10-02T12:33:20.198Z,98922.66
2022-10-02T12:36:08.544Z,98930.25
2022-10-02T12:38:52.395Z,98943.72
2022-10-02T12:41:54.963Z,98946.53
2022-10-02T12:44:47.618Z,98956.63
2022-10-02T12:47:47.265Z,98959.69
2022-10-02T12:50:24.960Z,98953.38
2022-10-02T12:53:15.131Z,98951.53
2022-10-02T12:56:01.383Z,98947.81
2022-10-02T12:58:39.931Z,98949.63
2022-10-02T13:01:54.569Z,98957.28
2022-10-02T13:05:05.155Z,98958.13
2022-10-02T13:07:56.038Z,98958.16
2022-10-02T13:10:25.960Z,98956.63
2022-10-02T13:13:07.848Z,98946.53
2022-10-02T13:15:45.654Z,98957.34
2022-10-02T13:18:33.082Z,98968.97
2022-10-02T13:21:11.780Z,98960.44
2022-10-02T13:23:54.065Z,98976.75
2022-10-02T13:26:32.453Z,98966.16
2022-10-02T13:29:40.453Z,98961.56
2022-10-02T13:32:31.841Z,98954.19
2022-10-02T13:35:15.992Z,98951.22
2022-10-02T13:38:01.003Z,98944.38
2022-10-02T13:40:39.320Z,98932.72
2022-10-02T13:43:28.405Z,98947.94
2022-10-02T13:46:03.441Z,98952.13
2022-10-02T13:48:44.242Z,98951.53
2022-10-02T13:51:20.525Z,98947.31
2022-10-02T13:54:12.747Z,98957.00
2022-10-02T13:56:51.501Z,98953.72
2022-10-02T13:59:44.453Z,98956.59
2022-10-02T14:02:26.135Z,98969.72
2022-10-02T14:05:00.479Z,98966.13
2022-10-02T14:07:44.438Z,98971.75
2022-10-02T14:10:27.818Z,98970.94
2022-10-02T14:13:14.744Z,98970.63
2022-10-02T14:15:59.243Z,98964.66
2022-10-02T14:18:57.002Z,98948.59
2022-10-02T14:21:32.013Z,98950.81
2022-10-02T14:24:20.571Z,98948.25
2022-10-02T14:27:05.986Z,98944.13
2022-10-02T14:29:48.537Z,98935.59
2022-10-02T14:32:38.243Z,98928.03
2022-10-02T14:35:31.875Z,98941.16
2022-10-02T14:38:24.498Z,98938.53
2022-10-02T14:40:54.111Z,98934.44
2022-10-02T14:43:50.117Z,98931.38
2022-10-02T14:46:41.331Z,98933.59
2022-10-02T14:49:39.809Z,98935.56
2022-10-02T14:52:30.249Z,98948.19
2022-10-02T14:55:21.997Z,98951.00
2022-10-02T14:58:17.285Z,98955.22
2022-10-02T15:01:04.702Z,98959.56
2022-10-02T15:03:51.858Z,98966.56
2022-10-02T15:06:36.411Z,98970.59
2022-10-02T15:09:12.396Z,98971.44
2022-10-02T15:12:07.712Z,98969.47
2022-10-02T15:14:42.316Z,98950.97
2022-10-02T15:17:44.302Z,98950.44
2022-10-02T15:20:24.601Z,98959.84
2022-10-02T15:22:58.099Z,98964.75
2022-10-02T15:25:43.221Z,98963.63
2022-10-02T15:28:35.815Z,98969.38
2022-10-02T15:31:17.188Z,98967.28
2022-10-02T15:33:56.223Z,98960.81
2022-10-02T15:36:44.518Z,98966.88
2022-10-02T15:39:53.654Z,98974.31
2022-10-02T15:42:41.335Z,98986.41
2022-10-02T15:45:25.641Z,99005.44
2022-10-02T15:48:10.037Z,99014.81
2022-10-02T15:50:50.898Z,99014.25
2022-10-02T15:53:54.601Z,99015.19
2022-10-02T15:56:43.810Z,99013.97
2022-10-02T15:59:30.127Z,99009.22
2022-10-02T16:02:15.346Z,98995.47
2022-10-02T16:04:59.746Z,98998.13
2022-10-02T16:07:51.767Z,99002.34
2022-10-02T16:10:25.951Z,99013.44
2022-10-02T16:13:11.393Z,99021.44
2022-10-02T16:15:51.189Z,99013.88
2022-10-02T16:18:41.226Z,99008.25
2022-10-02T16:21:37.311Z,99009.94
2022-10-02T16:24:25.798Z,99021.56
2022-10-02T16:27:25.347Z,99011.34
2022-10-02T16:30:12.474Z,99016.19
2022-10-02T16:33:10.214Z,99022.81
2022-10-02T16:36:08.174Z,99027.31
2022-10-02T16:38:48.293Z,99021.91
2022-10-02T16:41:54.076Z,99016.59
2022-10-02T16:44:40.437Z,99036.28
2022-10-02T16:47:13.817Z,99030.41
2022-10-02T16:49:50.911Z,99041.06
2022-10-02T16:52:25.726Z,99039.94
2022-10-02T16:55:02.331Z,99043.28
2022-10-02T16:57:50.457Z,99044.25
2022-10-02T17:00:25.479Z,99053.34
2022-10-02T17:03:00.272Z,99074.66
2022-10-02T17:05:33.803Z,99072.63
2022-10-02T17:08:08.527Z,99083.19
2022-10-02T17:10:53.189Z,99102.94
2022-10-02T17:13:30.446Z,99110.31
2022-10-02T17:16:09.004Z,99106.06
2022-10-02T17:18:45.031Z,99108.06
2022-10-02T17:21:18.571Z,99098.00
2022-10-02T17:23:56.580Z,99098.31
2022-10-02T17:26:37.625Z,99110.59
2022-10-02T17:29:14.072Z,99104.84
2022-10-02T17:31:51.722Z,99117.44
2022-10-02T17:34:23.149Z,99117.53
2022-10-02T17:36:59.443Z,99111.47
2022-10-02T17:39:42.519Z,99128.91
2022-10-02T17:42:20.468Z,99125.88
2022-10-02T17:44:57.744Z,99129.97
2022-10-02T17:47:49.521Z,99139.34
2022-10-02T17:50:36.316Z,99147.47
2022-10-02T17:53:35.987Z,99145.31
2022-10-02T17:56:28.596Z,99149.53
2022-10-02T17:59:12.147Z,99157.09
2022-10-02T18:01:50.122Z,99159.06
2022-10-02T18:04:32.881Z,99161.56
2022-10-02T18:07:17.817Z,99151.44
2022-10-02T18:09:57.740Z,99160.88
2022-10-02T18:12:39.964Z,99171.69
2022-10-02T18:15:25.107Z,99151.50
2022-10-02T18:18:08.131Z,99148.66
2022-10-02T18:20:51.886Z,99150.44
2022-10-02T18:23:45.028Z,99159.41
2022-10-02T18:26:25.691Z,99158.94
2022-10-02T18:29:15.285Z,99164.31
2022-10-02T18:31:59.646Z,99162.38
2022-10-02T18:34:43.580Z,99170.38
2022-10-02T18:37:30.514Z,99172.72
2022-10-02T18:40:17.481Z,99181.06
2022-10-02T18:43:02.230Z,99177.97
2022-10-02T18:45:47.631Z,99182.81
2022-10-02T18:48:50.555Z,99160.84
2022-10-02T18:51:36.581Z,99180.59
2022-10-02T18:54:23.273Z,99196.75
2022-10-02T18:57:04.240Z,99196.56
2022-10-02T18:59:47.881Z,99212.22
2022-10-02T19:02:30.166Z,99206.66
2022-10-02T19:05:26.424Z,99203.00
2022-10-02T19:08:08.691Z,99201.56
2022-10-02T19:10:46.605Z,99206.34
2022-10-02T19:13:22.436Z,99193.41
2022-10-02T19:15:52.543Z,99187.94
2022-10-02T19:18:22.826Z,99185.34
2022-10-02T19:20:56.321Z,99196.91
2022-10-02T19:23:31.637Z,99195.06
2022-10-02T19:26:05.518Z,99199.03
2022-10-02T19:28:46.312Z,99213.03
2022-10-02T19:31:22.194Z,99213.63
2022-10-02T19:33:54.416Z,99211.81
2022-10-02T19:36:25.321Z,99225.84
2022-10-02T19:38:56.974Z,99225.72
2022-10-02T19:41:26.749Z,99236.03
2022-10-02T19:44:00.124Z,99241.09
2022-10-02T19:46:35.201Z,99240.25
2022-10-02T19:49:07.351Z,99238.22
2022-10-02T19:51:45.099Z,99245.72
2022-10-02T19:54:20.835Z,99248.63
2022-10-02T19:56:54.388Z,99259.47
2022-10-02T19:59:28.673Z,99269.25
2022-10-02T20:02:02.028Z,99264.94
2022-10-02T20:04:32.310Z,99276.28
2022-10-02T20:07:02.347Z,99280.28
2022-10-02T20:09:36.875Z,99270.44
2022-10-02T20:12:13.338Z,99275.63
2022-10-02T20:14:44.575Z,99275.13
2022-10-02T20:17:13.577Z,99287.22
2022-10-02T20:19:49.965Z,99290.47
2022-10-02T20:22:25.013Z,99288.50
2022-10-02T20:24:57.116Z,99288.41
2022-10-02T20:27:51.869Z,99299.78
2022-10-02T20:30:21.411Z,99311.50
2022-10-02T20:32:54.834Z,99315.63
2022-10-02T20:35:29.230Z,99310.88
2022-10-02T20:37:59.367Z,99310.47
2022-10-02T20:40:30.301Z,99321.84
2022-10-02T20:43:04.626Z,99336.13
2022-10-02T20:45:40.355Z,99340.72
2022-10-02T20:49:07.425Z,99341.97
2022-10-02T20:52:06.209Z,99333.47
2022-10-02T20:54:47.737Z,99345.81
2022-10-02T20:57:59.149Z,99350.69
2022-10-02T21:00:28.718Z,99360.63
2022-10-02T21:03:18.477Z,99351.88
2022-10-02T21:06:36.596Z,99360.88
2022-10-02T21:09:22.390Z,99355.31
2022-10-02T21:12:28.177Z,99360.16
2022-10-02T21:15:24.633Z,99367.16
2022-10-02T21:18:30.183Z,99374.91
2022-10-02T21:21:45.471Z,99384.69
2022-10-02T21:24:48.715Z,99389.63
2022-10-02T21:27:44.973Z,99394.69
2022-10-02T21:30:15.149Z,99396.66
2022-10-02T21:33:12.428Z,99401.84
2022-10-02T21:35:51.921Z,99402.22
2022-10-02T21:38:43.850Z,99406.47
2022-10-02T21:42:01.219Z,99407.31
2022-10-02T21:45:14.505Z,99406.13
2022-10-02T21:48:21.664Z,99407.56
2022-10-02T21:51:26.779Z,99410.22
2022-10-02T21:54:37.226Z,99407.19
2022-10-02T21:57:44.478Z,99412.03
2022-10-02T22:00:15.713Z,99420.13
2022-10-02T22:03:13.772Z,99423.03
2022-10-02T22:06:17.731Z,99421.09
2022-10-02T22:09:10.411Z,99414.34
2022-10-02T22:11:49.640Z,99421.09
2022-10-02T22:14:28.415Z,99420.63
2022-10-02T22:17:01.130Z,99430.88
2022-10-02T22:19:44.287Z,99431.25
2022-10-02T22:22:25.549Z,99424.47
2022-10-02T22:25:08.376Z,99433.69
2022-10-02T22:27:58.422Z,99430.78
2022-10-02T22:30:28.846Z,99430.06
2022-10-02T22:33:14.058Z,99430.06
2022-10-02T22:36:04.094Z,99436.59
2022-10-02T22:38:35.276Z,99442.63
2022-10-02T22:41:10.438Z,99445.28
2022-10-02T22:43:48.577Z,99448.94
2022-10-02T22:46:28.803Z,99444.31
2022-10-02T22:49:02.104Z,99449.41
2022-10-02T22:51:38.230Z,99446.13
2022-10-02T22:54:18.747Z,99447.69
2022-10-02T22:56:58.614Z,99455.91
2022-10-02T22:59:32.724Z,99448.69
2022-10-02T23:02:09.418Z,99457.16
2022-10-02T23:04:50.018Z,99461.75
2022-10-02T23:07:26.087Z,99460.53
2022-10-02T23:10:01.560Z,99464.34
2022-10-02T23:12:38.754Z,99466.56
2022-10-02T23:15:42.744Z,99460.75
2022-10-02T23:18:23.061Z,99474.28
2022-10-02T23:21:02.346Z,99470.47
2022-10-02T23:23:35.646Z,99473.75
2022-10-02T23:26:08.271Z,99462.66
2022-10-02T23:28:45.536Z,99479.59
2022-10-02T23:31:23.706Z,99474.88
2022-10-02T23:33:57.918Z,99481.31
2022-10-02T23:36:30.281Z,99489.16
2022-10-02T23:39:06.506Z,99480.28
2022-10-02T23:41:47.406Z,99483.31
2022-10-02T23:44:27.824Z,99479.78
2022-10-02T23:47:12.998Z,99479.31
2022-10-02T23:49:44.787Z,99478.47
2022-10-02T23:52:43.051Z,99471.97
2022-10-02T23:55:24.700Z,99472.09
2022-10-02T23:58:13.744Z,99481.53
